sensor_id;sensor_type;location;lat;lon;timestamp;pressure;altitude;pressure_sealevel;temperature;humidity
19208;BME280;9737;59.466;18.036;2023-02-19T00:01:46;95792.94;;;-2.05;79.39
19208;BME280;9737;59.466;18.036;2023-02-19T00:04:16;95829.34;;;-1.95;79.50
19208;BME280;9737;59.466;18.036;2023-02-19T00:06:46;95835.22;;;-1.93;79.42
19208;BME280;9737;59.466;18.036;2023-02-19T00:09:16;95837.81;;;-1.93;79.42
19208;BME280;9737;59.466;18.036;2023-02-19T00:11:45;95827.69;;;-1.96;79.48
19208;BME280;9737;59.466;18.036;2023-02-19T00:14:15;95837.00;;;-1.94;79.16
19208;BME280;9737;59.466;18.036;2023-02-19T00:16:43;95822.50;;;-1.96;79.25
19208;BME280;9737;59.466;18.036;2023-02-19T00:19:12;95821.16;;;-2.00;79.32
19208;BME280;9737;59.466;18.036;2023-02-19T00:21:40;95802.38;;;-2.04;79.27
19208;BME280;9737;59.466;18.036;2023-02-19T00:24:11;95754.94;;;-2.15;79.31
19208;BME280;9737;59.466;18.036;2023-02-19T00:26:40;95772.56;;;-2.09;79.08
19208;BME280;9737;59.466;18.036;2023-02-19T00:29:11;95773.53;;;-2.10;79.23
19208;BME280;9737;59.466;18.036;2023-02-19T00:31:39;95779.25;;;-2.07;79.45
19208;BME280;9737;59.466;18.036;2023-02-19T00:34:09;95759.84;;;-2.12;79.14
19208;BME280;9737;59.466;18.036;2023-02-19T00:36:39;95744.69;;;-2.17;79.19
19208;BME280;9737;59.466;18.036;2023-02-19T00:39:12;95748.91;;;-2.16;79.17
19208;BME280;9737;59.466;18.036;2023-02-19T00:41:41;95791.84;;;-2.02;79.22
19208;BME280;9737;59.466;18.036;2023-02-19T00:44:10;95773.53;;;-2.10;79.33
19208;BME280;9737;59.466;18.036;2023-02-19T00:46:40;95747.94;;;-2.15;79.27
19208;BME280;9737;59.466;18.036;2023-02-19T00:49:13;95768.84;;;-2.07;79.22
19208;BME280;9737;59.466;18.036;2023-02-19T00:51:42;95797.31;;;-2.05;79.25
19208;BME280;9737;59.466;18.036;2023-02-19T00:54:14;95785.13;;;-2.05;78.94
19208;BME280;9737;59.466;18.036;2023-02-19T00:56:43;95788.53;;;-2.04;79.21
19208;BME280;9737;59.466;18.036;2023-02-19T00:59:11;95772.41;;;-2.08;79.31
19208;BME280;9737;59.466;18.036;2023-02-19T01:01:39;95775.81;;;-2.07;79.15
19208;BME280;9737;59.466;18.036;2023-02-19T01:04:07;95749.72;;;-2.15;78.92
19208;BME280;9737;59.466;18.036;2023-02-19T01:06:35;95741.25;;;-2.17;78.98
19208;BME280;9737;59.466;18.036;2023-02-19T01:09:04;95725.94;;;-2.21;78.92
19208;BME280;9737;59.466;18.036;2023-02-19T01:11:34;95710.63;;;-2.24;78.87
19208;BME280;9737;59.466;18.036;2023-02-19T01:14:02;95689.59;;;-2.30;78.79
19208;BME280;9737;59.466;18.036;2023-02-19T01:16:31;95680.28;;;-2.33;78.88
19208;BME280;9737;59.466;18.036;2023-02-19T01:18:58;95675.38;;;-2.36;79.07
19208;BME280;9737;59.466;18.036;2023-02-19T01:21:28;95675.38;;;-2.36;79.05
19208;BME280;9737;59.466;18.036;2023-02-19T01:23:57;95644.75;;;-2.42;79.31
19208;BME280;9737;59.466;18.036;2023-02-19T01:26:27;95664.16;;;-2.36;78.98
19208;BME280;9737;59.466;18.036;2023-02-19T01:28:57;95682.88;;;-2.33;78.98
19208;BME280;9737;59.466;18.036;2023-02-19T01:31:25;95664.44;;;-2.39;78.63
19208;BME280;9737;59.466;18.036;2023-02-19T01:33:55;95664.97;;;-2.36;78.72
19208;BME280;9737;59.466;18.036;2023-02-19T01:36:25;95690.00;;;-2.35;78.86
19208;BME280;9737;59.466;18.036;2023-02-19T01:38:53;95715.81;;;-2.24;78.94
19208;BME280;9737;59.466;18.036;2023-02-19T01:41:23;95697.25;;;-2.29;78.95
19208;BME280;9737;59.466;18.036;2023-02-19T01:43:57;95664.16;;;-2.36;78.71
19208;BME280;9737;59.466;18.036;2023-02-19T01:46:27;95693.00;;;-2.30;79.04
19208;BME280;9737;59.466;18.036;2023-02-19T01:48:58;95681.91;;;-2.32;78.62
19208;BME280;9737;59.466;18.036;2023-02-19T01:51:28;95696.44;;;-2.29;78.77
19208;BME280;9737;59.466;18.036;2023-02-19T01:53:59;95692.03;;;-2.29;78.75
19208;BME280;9737;59.466;18.036;2023-02-19T01:56:32;95688.47;;;-2.28;78.83
19208;BME280;9737;59.466;18.036;2023-02-19T01:59:03;95664.97;;;-2.36;78.56
19208;BME280;9737;59.466;18.036;2023-02-19T02:01:32;95623.56;;;-2.47;78.76
19208;BME280;9737;59.466;18.036;2023-02-19T02:04:00;95633.84;;;-2.45;78.92
19208;BME280;9737;59.466;18.036;2023-02-19T02:06:30;95642.31;;;-2.43;78.87
19208;BME280;9737;59.466;18.036;2023-02-19T02:09:00;95625.22;;;-2.46;78.46
19208;BME280;9737;59.466;18.036;2023-02-19T02:11:48;95661.38;;;-2.35;78.74
19208;BME280;9737;59.466;18.036;2023-02-19T02:14:20;95687.00;;;-2.30;78.62
19208;BME280;9737;59.466;18.036;2023-02-19T02:16:54;95709.81;;;-2.24;78.60
19208;BME280;9737;59.466;18.036;2023-02-19T02:19:31;95702.16;;;-2.26;78.67
19208;BME280;9737;59.466;18.036;2023-02-19T02:22:09;95723.19;;;-2.19;78.47
19208;BME280;9737;59.466;18.036;2023-02-19T02:25:15;95763.13;;;-2.10;78.58
19208;BME280;9737;59.466;18.036;2023-02-19T02:27:52;95742.59;;;-2.13;78.57
19208;BME280;9737;59.466;18.036;2023-02-19T02:30:32;95720.06;;;-2.23;78.47
19208;BME280;9737;59.466;18.036;2023-02-19T02:33:11;95708.03;;;-2.24;78.55
19208;BME280;9737;59.466;18.036;2023-02-19T02:35:45;95698.59;;;-2.25;78.62
19208;BME280;9737;59.466;18.036;2023-02-19T02:38:16;95721.56;;;-2.20;78.38
19208;BME280;9737;59.466;18.036;2023-02-19T02:40:46;95706.38;;;-2.25;78.50
19208;BME280;9737;59.466;18.036;2023-02-19T02:43:14;95721.41;;;-2.19;78.68
19208;BME280;9737;59.466;18.036;2023-02-19T02:45:43;95730.84;;;-2.17;78.64
19208;BME280;9737;59.466;18.036;2023-02-19T02:50:45;95752.69;;;-2.10;78.70
19208;BME280;9737;59.466;18.036;2023-02-19T02:53:17;95757.59;;;-2.07;78.46
19208;BME280;9737;59.466;18.036;2023-02-19T02:56:05;95762.81;;;-2.07;78.70
19208;BME280;9737;59.466;18.036;2023-02-19T02:58:33;95760.22;;;-2.07;78.25
19208;BME280;9737;59.466;18.036;2023-02-19T03:01:06;95783.88;;;-2.01;78.55
19208;BME280;9737;59.466;18.036;2023-02-19T03:03:57;95765.25;;;-2.06;78.25
19208;BME280;9737;59.466;18.036;2023-02-19T03:06:30;95817.00;;;-1.93;78.19
19208;BME280;9737;59.466;18.036;2023-02-19T03:09:07;95822.84;;;-1.91;78.38
19208;BME280;9737;59.466;18.036;2023-02-19T03:11:39;95806.56;;;-1.93;78.11
19208;BME280;9737;59.466;18.036;2023-02-19T03:14:30;95799.22;;;-1.98;78.61
19208;BME280;9737;59.466;18.036;2023-02-19T03:17:23;95826.28;;;-1.91;78.26
19208;BME280;9737;59.466;18.036;2023-02-19T03:20:14;95798.41;;;-1.98;78.41
19208;BME280;9737;59.466;18.036;2023-02-19T03:22:45;95794.81;;;-1.97;78.14
19208;BME280;9737;59.466;18.036;2023-02-19T03:25:16;95815.34;;;-1.94;78.24
19208;BME280;9737;59.466;18.036;2023-02-19T03:28:04;95833.94;;;-1.89;78.40
19208;BME280;9737;59.466;18.036;2023-02-19T03:30:35;95804.94;;;-1.94;78.10
19208;BME280;9737;59.466;18.036;2023-02-19T03:33:08;95789.91;;;-2.00;78.17
19208;BME280;9737;59.466;18.036;2023-02-19T03:35:41;95820.25;;;-1.91;78.31
19208;BME280;9737;59.466;18.036;2023-02-19T03:38:12;95803.41;;;-2.14;78.63
19208;BME280;9737;59.466;18.036;2023-02-19T03:40:50;95882.09;;;-1.75;78.36
19208;BME280;9737;59.466;18.036;2023-02-19T03:43:23;95892.22;;;-1.72;78.36
19208;BME280;9737;59.466;18.036;2023-02-19T03:46:01;95907.56;;;-1.69;77.96
19208;BME280;9737;59.466;18.036;2023-02-19T03:48:35;95907.41;;;-1.68;78.40
19208;BME280;9737;59.466;18.036;2023-02-19T03:51:17;95897.44;;;-1.72;77.96
19208;BME280;9737;59.466;18.036;2023-02-19T03:53:52;95895.66;;;-1.72;78.43
19208;BME280;9737;59.466;18.036;2023-02-19T03:56:26;95911.66;;;-1.67;78.30
19208;BME280;9737;59.466;18.036;2023-02-19T03:58:59;95948.06;;;-1.57;78.27
19208;BME280;9737;59.466;18.036;2023-02-19T04:01:33;95955.72;;;-1.56;78.16
19208;BME280;9737;59.466;18.036;2023-02-19T04:04:08;95965.03;;;-1.53;78.33
19208;BME280;9737;59.466;18.036;2023-02-19T04:06:41;95938.09;;;-1.62;77.99
19208;BME280;9737;59.466;18.036;2023-02-19T04:09:13;95928.47;;;-1.61;78.46
19208;BME280;9737;59.466;18.036;2023-02-19T04:11:41;95945.91;;;-1.62;78.32
19208;BME280;9737;59.466;18.036;2023-02-19T04:14:12;95972.69;;;-1.51;78.31
19208;BME280;9737;59.466;18.036;2023-02-19T04:16:47;95967.34;;;-1.50;78.40
19208;BME280;9737;59.466;18.036;2023-02-19T04:19:20;95968.16;;;-1.49;78.00
19208;BME280;9737;59.466;18.036;2023-02-19T04:21:52;95978.56;;;-1.49;78.23
19208;BME280;9737;59.466;18.036;2023-02-19T04:24:23;95992.94;;;-1.45;77.82
19208;BME280;9737;59.466;18.036;2023-02-19T04:26:54;95988.84;;;-1.48;77.91
19208;BME280;9737;59.466;18.036;2023-02-19T04:29:22;95969.13;;;-1.50;78.03
19208;BME280;9737;59.466;18.036;2023-02-19T04:31:50;95983.63;;;-1.48;77.86
19208;BME280;9737;59.466;18.036;2023-02-19T04:34:20;95999.84;;;-1.44;78.13
19208;BME280;9737;59.466;18.036;2023-02-19T04:36:48;96006.69;;;-1.43;78.06
19208;BME280;9737;59.466;18.036;2023-02-19T04:39:16;96008.31;;;-1.42;77.89
19208;BME280;9737;59.466;18.036;2023-02-19T04:41:44;95975.97;;;-1.49;77.62
19208;BME280;9737;59.466;18.036;2023-02-19T04:44:12;95982.81;;;-1.48;77.67
19208;BME280;9737;59.466;18.036;2023-02-19T04:46:40;95965.84;;;-1.52;77.99
19208;BME280;9737;59.466;18.036;2023-02-19T04:49:09;95981.03;;;-1.48;78.15
19208;BME280;9737;59.466;18.036;2023-02-19T04:51:38;95975.97;;;-1.49;77.90
19208;BME280;9737;59.466;18.036;2023-02-19T04:54:07;95981.84;;;-1.47;77.83
19208;BME280;9737;59.466;18.036;2023-02-19T04:56:35;95959.81;;;-1.53;77.63
19208;BME280;9737;59.466;18.036;2023-02-19T04:59:03;95951.47;;;-1.57;77.69
19208;BME280;9737;59.466;18.036;2023-02-19T05:01:31;95934.50;;;-1.61;77.69
19208;BME280;9737;59.466;18.036;2023-02-19T05:03:59;95920.81;;;-1.63;77.72
19208;BME280;9737;59.466;18.036;2023-02-19T05:06:27;95913.97;;;-1.64;77.74
19208;BME280;9737;59.466;18.036;2023-02-19T05:08:56;95900.41;;;-1.67;78.03
19208;BME280;9737;59.466;18.036;2023-02-19T05:11:24;95906.44;;;-1.67;77.60
19208;BME280;9737;59.466;18.036;2023-02-19T05:13:53;95903.19;;;-1.69;77.61
19208;BME280;9737;59.466;18.036;2023-02-19T05:16:22;95857.31;;;-1.79;77.83
19208;BME280;9737;59.466;18.036;2023-02-19T05:18:49;95836.25;;;-1.86;77.71
19208;BME280;9737;59.466;18.036;2023-02-19T05:21:17;95782.78;;;-1.98;77.55
19208;BME280;9737;59.466;18.036;2023-02-19T05:23:45;95777.88;;;-2.01;77.70
19208;BME280;9737;59.466;18.036;2023-02-19T05:26:16;95787.97;;;-1.98;77.82
19208;BME280;9737;59.466;18.036;2023-02-19T05:28:45;95779.75;;;-2.03;77.73
19208;BME280;9737;59.466;18.036;2023-02-19T05:31:14;95774.28;;;-2.00;77.69
19208;BME280;9737;59.466;18.036;2023-02-19T05:33:42;95795.63;;;-1.97;77.61
19208;BME280;9737;59.466;18.036;2023-02-19T05:36:12;95801.66;;;-1.96;77.86
19208;BME280;9737;59.466;18.036;2023-02-19T05:38:40;95799.06;;;-1.96;77.55
19208;BME280;9737;59.466;18.036;2023-02-19T05:41:11;95808.22;;;-1.92;77.32
19208;BME280;9737;59.466;18.036;2023-02-19T05:43:42;95816.69;;;-1.90;77.57
19208;BME280;9737;59.466;18.036;2023-02-19T05:46:12;95783.59;;;-1.98;77.52
19208;BME280;9737;59.466;18.036;2023-02-19T05:48:40;95769.34;;;-2.03;77.67
19208;BME280;9737;59.466;18.036;2023-02-19T05:51:11;95762.50;;;-2.04;77.62
19208;BME280;9737;59.466;18.036;2023-02-19T05:53:40;95745.56;;;-2.08;77.39
19208;BME280;9737;59.466;18.036;2023-02-19T05:56:22;95742.28;;;-2.10;77.59
19208;BME280;9737;59.466;18.036;2023-02-19T05:58:53;95743.09;;;-2.10;77.38
19208;BME280;9737;59.466;18.036;2023-02-19T06:01:23;95761.69;;;-2.05;77.35
19208;BME280;9737;59.466;18.036;2023-02-19T06:03:51;95759.91;;;-2.04;77.77
19208;BME280;9737;59.466;18.036;2023-02-19T06:06:24;95762.50;;;-2.04;77.43
19208;BME280;9737;59.466;18.036;2023-02-19T06:08:52;95744.06;;;-2.11;77.45
19208;BME280;9737;59.466;18.036;2023-02-19T06:11:21;95729.56;;;-2.13;77.20
19208;BME280;9737;59.466;18.036;2023-02-19T06:13:49;95749.81;;;-2.07;77.25
19208;BME280;9737;59.466;18.036;2023-02-19T06:16:18;95749.13;;;-2.09;77.32
19208;BME280;9737;59.466;18.036;2023-02-19T06:18:47;95738.72;;;-2.09;77.49
19208;BME280;9737;59.466;18.036;2023-02-19T06:21:16;95748.16;;;-2.08;77.47
19208;BME280;9737;59.466;18.036;2023-02-19T06:23:45;95724.16;;;-2.20;77.31
19208;BME280;9737;59.466;18.036;2023-02-19T06:26:16;95716.56;;;-2.13;77.31
19208;BME280;9737;59.466;18.036;2023-02-19T06:28:45;95704.00;;;-2.18;77.20
19208;BME280;9737;59.466;18.036;2023-02-19T06:31:13;95697.97;;;-2.19;77.08
19208;BME280;9737;59.466;18.036;2023-02-19T06:33:43;95720.94;;;-2.14;77.22
19208;BME280;9737;59.466;18.036;2023-02-19T06:36:12;95718.81;;;-2.19;77.33
19208;BME280;9737;59.466;18.036;2023-02-19T06:38:41;95747.03;;;-2.06;77.14
19208;BME280;9737;59.466;18.036;2023-02-19T06:41:10;95738.19;;;-2.13;77.27
19208;BME280;9737;59.466;18.036;2023-02-19T06:43:38;95765.81;;;-2.02;77.39
19208;BME280;9737;59.466;18.036;2023-02-19T06:46:07;95737.75;;;-2.08;77.21
19208;BME280;9737;59.466;18.036;2023-02-19T06:48:35;95750.47;;;-2.05;77.31
19208;BME280;9737;59.466;18.036;2023-02-19T06:51:06;95757.31;;;-2.04;77.18
19208;BME280;9737;59.466;18.036;2023-02-19T06:53:36;95770.06;;;-2.01;77.41
19208;BME280;9737;59.466;18.036;2023-02-19T06:56:06;95785.22;;;-1.97;77.28
19208;BME280;9737;59.466;18.036;2023-02-19T06:58:35;95824.88;;;-1.85;77.04
19208;BME280;9737;59.466;18.036;2023-02-19T07:01:03;95903.69;;;-1.65;77.31
19208;BME280;9737;59.466;18.036;2023-02-19T07:03:31;95988.28;;;-1.42;77.03
19208;BME280;9737;59.466;18.036;2023-02-19T07:06:00;96052.13;;;-1.28;77.04
19208;BME280;9737;59.466;18.036;2023-02-19T07:08:29;96092.38;;;-1.13;77.16
19208;BME280;9737;59.466;18.036;2023-02-19T07:10:57;96051.81;;;-1.25;77.05
19208;BME280;9737;59.466;18.036;2023-02-19T07:13:26;96042.81;;;-1.31;77.06
19208;BME280;9737;59.466;18.036;2023-02-19T07:15:57;96001.19;;;-1.40;77.19
19208;BME280;9737;59.466;18.036;2023-02-19T07:18:26;95978.97;;;-1.44;77.11
19208;BME280;9737;59.466;18.036;2023-02-19T07:20:54;95954.47;;;-1.51;77.10
19208;BME280;9737;59.466;18.036;2023-02-19T07:23:22;95945.31;;;-1.56;77.03
19208;BME280;9737;59.466;18.036;2023-02-19T07:25:51;95927.00;;;-1.64;77.13
19208;BME280;9737;59.466;18.036;2023-02-19T07:28:19;95917.38;;;-1.63;77.19
19208;BME280;9737;59.466;18.036;2023-02-19T07:30:47;95931.91;;;-1.61;77.29
19208;BME280;9737;59.466;18.036;2023-02-19T07:33:15;95955.13;;;-1.49;77.00
19208;BME280;9737;59.466;18.036;2023-02-19T07:35:44;95945.00;;;-1.52;77.01
19208;BME280;9737;59.466;18.036;2023-02-19T07:38:14;95977.31;;;-1.45;76.96
19208;BME280;9737;59.466;18.036;2023-02-19T07:40:51;96008.03;;;-1.39;76.81
19208;BME280;9737;59.466;18.036;2023-02-19T07:43:19;96021.44;;;-1.34;76.80
19208;BME280;9737;59.466;18.036;2023-02-19T07:45:48;96038.41;;;-1.30;77.18
19208;BME280;9737;59.466;18.036;2023-02-19T07:48:16;96088.41;;;-1.17;77.35
19208;BME280;9737;59.466;18.036;2023-02-19T07:50:50;96170.47;;;-0.94;77.24
19208;BME280;9737;59.466;18.036;2023-02-19T07:53:18;96267.31;;;-0.69;76.69
19208;BME280;9737;59.466;18.036;2023-02-19T07:55:46;96466.56;;;-0.14;76.75
19208;BME280;9737;59.466;18.036;2023-02-19T07:58:15;96847.28;;;0.81;76.73
19208;BME280;9737;59.466;18.036;2023-02-19T08:00:43;97119.63;;;1.57;76.99
19208;BME280;9737;59.466;18.036;2023-02-19T08:03:11;97380.94;;;2.24;77.12
19208;BME280;9737;59.466;18.036;2023-02-19T08:05:40;97634.84;;;2.91;77.21
19208;BME280;9737;59.466;18.036;2023-02-19T08:08:09;97615.19;;;2.85;77.28
19208;BME280;9737;59.466;18.036;2023-02-19T08:10:37;97532.13;;;2.65;77.39
19208;BME280;9737;59.466;18.036;2023-02-19T08:13:25;97301.69;;;2.01;77.27
19208;BME280;9737;59.466;18.036;2023-02-19T08:15:54;97199.91;;;1.77;77.09
19208;BME280;9737;59.466;18.036;2023-02-19T08:18:42;97176.00;;;1.70;77.04
19208;BME280;9737;59.466;18.036;2023-02-19T08:21:10;97242.66;;;1.87;76.98
19208;BME280;9737;59.466;18.036;2023-02-19T08:23:39;97245.13;;;1.89;77.17
19208;BME280;9737;59.466;18.036;2023-02-19T08:26:07;97271.91;;;1.92;77.14
19208;BME280;9737;59.466;18.036;2023-02-19T08:28:36;97325.59;;;2.07;77.18
19208;BME280;9737;59.466;18.036;2023-02-19T08:31:06;97400.69;;;2.28;77.11
19208;BME280;9737;59.466;18.036;2023-02-19T08:33:35;97438.28;;;2.38;77.12
19208;BME280;9737;59.466;18.036;2023-02-19T08:36:04;97459.41;;;2.46;77.12
19208;BME280;9737;59.466;18.036;2023-02-19T08:38:34;97555.31;;;2.69;77.20
19208;BME280;9737;59.466;18.036;2023-02-19T08:41:04;97741.88;;;3.18;76.91
19208;BME280;9737;59.466;18.036;2023-02-19T08:43:32;97987.16;;;3.79;77.39
19208;BME280;9737;59.466;18.036;2023-02-19T08:46:02;98132.03;;;4.18;77.46
19208;BME280;9737;59.466;18.036;2023-02-19T08:48:31;98334.22;;;4.65;77.22
19208;BME280;9737;59.466;18.036;2023-02-19T08:51:00;98490.91;;;5.03;76.96
19208;BME280;9737;59.466;18.036;2023-02-19T08:53:30;98807.34;;;5.89;77.09
19208;BME280;9737;59.466;18.036;2023-02-19T08:56:00;98947.44;;;6.20;77.16
19208;BME280;9737;59.466;18.036;2023-02-19T08:58:30;99272.78;;;7.05;77.39
19208;BME280;9737;59.466;18.036;2023-02-19T09:00:59;99296.19;;;7.09;77.17
19208;BME280;9737;59.466;18.036;2023-02-19T09:03:28;99441.50;;;7.46;77.16
19208;BME280;9737;59.466;18.036;2023-02-19T09:05:56;99355.97;;;7.23;77.42
19208;BME280;9737;59.466;18.036;2023-02-19T09:08:23;99264.25;;;7.01;77.46
19208;BME280;9737;59.466;18.036;2023-02-19T09:10:58;99456.50;;;7.45;77.39
19208;BME280;9737;59.466;18.036;2023-02-19T09:13:26;99340.56;;;7.17;77.30
19208;BME280;9737;59.466;18.036;2023-02-19T09:15:54;99406.25;;;7.34;77.26
19208;BME280;9737;59.466;18.036;2023-02-19T09:18:23;99696.25;;;8.07;77.40
19208;BME280;9737;59.466;18.036;2023-02-19T09:20:52;99777.75;;;8.27;77.40
19208;BME280;9737;59.466;18.036;2023-02-19T09:23:20;99876.66;;;8.52;77.13
19208;BME280;9737;59.466;18.036;2023-02-19T09:25:55;100185.00;;;9.27;77.35
19208;BME280;9737;59.466;18.036;2023-02-19T09:28:24;100298.94;;;9.54;77.19
19208;BME280;9737;59.466;18.036;2023-02-19T09:30:51;100356.38;;;9.68;77.44
19208;BME280;9737;59.466;18.036;2023-02-19T09:33:19;100079.06;;;9.00;77.29
19208;BME280;9737;59.466;18.036;2023-02-19T09:35:47;100302.47;;;9.54;77.36
19208;BME280;9737;59.466;18.036;2023-02-19T09:38:16;100224.13;;;9.36;77.78
19208;BME280;9737;59.466;18.036;2023-02-19T09:40:44;100435.28;;;9.91;76.95
19208;BME280;9737;59.466;18.036;2023-02-19T09:43:16;100560.91;;;10.18;76.84
19208;BME280;9737;59.466;18.036;2023-02-19T09:45:45;100827.75;;;10.82;77.22
19208;BME280;9737;59.466;18.036;2023-02-19T09:48:13;100873.84;;;10.96;76.94
19208;BME280;9737;59.466;18.036;2023-02-19T09:50:43;100933.50;;;11.06;77.07
19208;BME280;9737;59.466;18.036;2023-02-19T09:53:17;100967.38;;;11.16;77.09
19208;BME280;9737;59.466;18.036;2023-02-19T09:55:47;101185.91;;;11.67;77.25
19208;BME280;9737;59.466;18.036;2023-02-19T09:58:21;101350.41;;;12.06;76.99
19208;BME280;9737;59.466;18.036;2023-02-19T10:00:54;101405.63;;;12.19;76.96
19208;BME280;9737;59.466;18.036;2023-02-19T10:03:25;101493.19;;;12.39;77.06
19208;BME280;9737;59.466;18.036;2023-02-19T10:05:58;101626.22;;;12.74;77.00
19208;BME280;9737;59.466;18.036;2023-02-19T10:08:32;101850.88;;;13.24;76.79
19208;BME280;9737;59.466;18.036;2023-02-19T10:11:02;101537.78;;;12.51;76.95
19208;BME280;9737;59.466;18.036;2023-02-19T10:13:33;101417.78;;;12.23;76.85
19208;BME280;9737;59.466;18.036;2023-02-19T10:16:04;101646.50;;;12.76;76.55
19208;BME280;9737;59.466;18.036;2023-02-19T10:18:37;101849.94;;;13.25;76.94
19208;BME280;9737;59.466;18.036;2023-02-19T10:21:07;101979.00;;;13.56;76.79
19208;BME280;9737;59.466;18.036;2023-02-19T10:23:40;101865.88;;;13.27;76.64
19208;BME280;9737;59.466;18.036;2023-02-19T10:26:08;102029.06;;;13.68;76.66
19208;BME280;9737;59.466;18.036;2023-02-19T10:28:36;102094.94;;;13.83;76.54
19208;BME280;9737;59.466;18.036;2023-02-19T10:31:14;102025.50;;;13.68;76.44
19208;BME280;9737;59.466;18.036;2023-02-19T10:33:50;102135.47;;;13.91;76.39
19208;BME280;9737;59.466;18.036;2023-02-19T10:36:24;102133.56;;;13.93;76.20
19208;BME280;9737;59.466;18.036;2023-02-19T10:38:59;102521.22;;;14.77;76.33
19208;BME280;9737;59.466;18.036;2023-02-19T10:41:28;102572.84;;;14.95;76.20
19208;BME280;9737;59.466;18.036;2023-02-19T10:44:04;102419.66;;;14.58;76.42
19208;BME280;9737;59.466;18.036;2023-02-19T10:46:35;102435.44;;;14.63;76.38
19208;BME280;9737;59.466;18.036;2023-02-19T10:49:06;101967.44;;;13.55;76.17
19208;BME280;9737;59.466;18.036;2023-02-19T10:51:44;101940.22;;;13.49;76.03
19208;BME280;9737;59.466;18.036;2023-02-19T10:54:19;102197.69;;;14.09;75.64
19208;BME280;9737;59.466;18.036;2023-02-19T10:56:47;102122.09;;;13.91;75.88
19208;BME280;9737;59.466;18.036;2023-02-19T10:59:22;102108.94;;;13.88;75.98
19208;BME280;9737;59.466;18.036;2023-02-19T11:01:58;102231.94;;;14.18;75.44
19208;BME280;9737;59.466;18.036;2023-02-19T11:04:27;102559.47;;;14.95;75.70
19208;BME280;9737;59.466;18.036;2023-02-19T11:07:07;102730.53;;;15.34;75.62
19208;BME280;9737;59.466;18.036;2023-02-19T11:09:39;102709.22;;;15.31;75.62
19208;BME280;9737;59.466;18.036;2023-02-19T11:12:09;102814.41;;;15.52;75.45
19208;BME280;9737;59.466;18.036;2023-02-19T11:14:41;102446.75;;;14.68;75.63
19208;BME280;9737;59.466;18.036;2023-02-19T11:17:21;102451.91;;;14.71;75.05
19208;BME280;9737;59.466;18.036;2023-02-19T11:19:51;102744.53;;;15.39;75.03
19208;BME280;9737;59.466;18.036;2023-02-19T11:22:29;102778.09;;;15.46;74.89
19208;BME280;9737;59.466;18.036;2023-02-19T11:25:03;102448.47;;;14.69;74.93
19208;BME280;9737;59.466;18.036;2023-02-19T11:27:32;102201.13;;;14.11;74.78
19208;BME280;9737;59.466;18.036;2023-02-19T11:30:30;101886.59;;;13.38;74.75
19208;BME280;9737;59.466;18.036;2023-02-19T11:33:18;101911.97;;;13.45;74.81
19208;BME280;9737;59.466;18.036;2023-02-19T11:35:50;101608.47;;;12.73;74.30
19208;BME280;9737;59.466;18.036;2023-02-19T11:38:18;101421.88;;;12.28;74.46
19208;BME280;9737;59.466;18.036;2023-02-19T11:40:53;101618.97;;;12.76;74.17
19208;BME280;9737;59.466;18.036;2023-02-19T11:43:38;101317.66;;;12.04;74.29
19208;BME280;9737;59.466;18.036;2023-02-19T11:46:16;101401.50;;;12.27;73.85
19208;BME280;9737;59.466;18.036;2023-02-19T11:49:00;101349.22;;;12.10;73.96
19208;BME280;9737;59.466;18.036;2023-02-19T11:51:42;101087.38;;;11.53;74.04
19208;BME280;9737;59.466;18.036;2023-02-19T11:54:30;100944.25;;;11.17;74.04
19208;BME280;9737;59.466;18.036;2023-02-19T11:57:07;101271.13;;;11.96;73.51
19208;BME280;9737;59.466;18.036;2023-02-19T11:59:43;101086.53;;;11.53;73.61
19208;BME280;9737;59.466;18.036;2023-02-19T12:02:23;100947.66;;;11.19;73.31
19208;BME280;9737;59.466;18.036;2023-02-19T12:05:08;100849.78;;;10.97;73.03
19208;BME280;9737;59.466;18.036;2023-02-19T12:11:10;100943.09;;;11.21;72.86
19208;BME280;9737;59.466;18.036;2023-02-19T12:13:55;100813.16;;;10.88;73.16
19208;BME280;9737;59.466;18.036;2023-02-19T12:16:30;100881.09;;;11.06;73.05
19208;BME280;9737;59.466;18.036;2023-02-19T12:19:39;100732.03;;;10.68;72.90
19208;BME280;9737;59.466;18.036;2023-02-19T12:22:19;100807.72;;;10.90;72.58
19208;BME280;9737;59.466;18.036;2023-02-19T12:25:09;100644.72;;;10.49;72.26
19208;BME280;9737;59.466;18.036;2023-02-19T12:27:51;100429.53;;;9.97;72.60
19208;BME280;9737;59.466;18.036;2023-02-19T12:30:38;100115.69;;;9.19;72.63
19208;BME280;9737;59.466;18.036;2023-02-19T12:33:39;100150.50;;;9.27;72.32
19208;BME280;9737;59.466;18.036;2023-02-19T12:36:19;99847.16;;;8.56;72.10
19208;BME280;9737;59.466;18.036;2023-02-19T12:39:00;100018.16;;;8.98;71.70
19208;BME280;9737;59.466;18.036;2023-02-19T12:41:39;100138.38;;;9.23;71.83
19208;BME280;9737;59.466;18.036;2023-02-19T12:44:12;99989.53;;;8.91;71.92
19208;BME280;9737;59.466;18.036;2023-02-19T12:46:47;100082.38;;;9.15;71.87
19208;BME280;9737;59.466;18.036;2023-02-19T12:49:20;100107.94;;;9.16;71.95
19208;BME280;9737;59.466;18.036;2023-02-19T12:51:54;100301.34;;;9.70;71.59
19208;BME280;9737;59.466;18.036;2023-02-19T12:54:25;100561.66;;;10.33;71.58
19208;BME280;9737;59.466;18.036;2023-02-19T12:57:00;100653.00;;;10.58;71.15
19208;BME280;9737;59.466;18.036;2023-02-19T12:59:32;100369.09;;;9.88;71.49
19208;BME280;9737;59.466;18.036;2023-02-19T13:02:12;100221.31;;;9.50;71.22
19208;BME280;9737;59.466;18.036;2023-02-19T13:04:46;100123.97;;;9.27;70.96
19208;BME280;9737;59.466;18.036;2023-02-19T13:07:19;100133.59;;;9.28;71.09
19208;BME280;9737;59.466;18.036;2023-02-19T13:09:55;100029.16;;;9.05;71.15
19208;BME280;9737;59.466;18.036;2023-02-19T13:12:28;100061.38;;;9.12;70.95
19208;BME280;9737;59.466;18.036;2023-02-19T13:14:59;99950.94;;;8.87;70.65
19208;BME280;9737;59.466;18.036;2023-02-19T13:17:35;99821.59;;;8.55;70.68
19208;BME280;9737;59.466;18.036;2023-02-19T13:20:13;99777.50;;;8.43;70.76
19208;BME280;9737;59.466;18.036;2023-02-19T13:22:49;99706.22;;;8.27;70.41
19208;BME280;9737;59.466;18.036;2023-02-19T13:25:47;99941.41;;;8.84;70.57
19208;BME280;9737;59.466;18.036;2023-02-19T13:28:38;99943.09;;;8.85;70.79
19208;BME280;9737;59.466;18.036;2023-02-19T13:31:22;99985.47;;;8.98;70.57
19208;BME280;9737;59.466;18.036;2023-02-19T13:34:02;100062.84;;;9.16;70.54